createdAt,value
2018-01-28T00:02:23.099Z,3.20
2018-01-28T00:07:27.100Z,3.20
2018-01-28T00:12:34.979Z,3.20
2018-01-28T00:17:44.555Z,3.10
2018-01-28T00:22:54.904Z,3.10
2018-01-28T00:28:00.835Z,3.10
2018-01-28T00:33:08.275Z,3.10
2018-01-28T00:38:17.288Z,3.10
2018-01-28T00:48:43.824Z,3.10
2018-01-28T00:53:51.997Z,3.10
2018-01-28T00:58:59.921Z,3.00
2018-01-28T01:04:08.794Z,3.00
2018-01-28T01:09:15.127Z,3.00
2018-01-28T01:14:27.642Z,3.00
2018-01-28T01:19:36.312Z,3.00
2018-01-28T01:24:46.832Z,3.00
2018-01-28T01:40:23.919Z,3.00
2018-01-28T01:45:35.501Z,3.00
2018-01-28T01:50:46.855Z,2.90
2018-01-28T01:55:56.047Z,3.00
2018-01-28T02:01:07.382Z,3.00
2018-01-28T02:06:17.379Z,3.00
2018-01-28T02:11:27.076Z,3.00
2018-01-28T02:16:33.608Z,3.00
2018-01-28T02:21:43.800Z,3.00
2018-01-28T02:32:07.725Z,3.00
2018-01-28T02:37:15.580Z,3.00
2018-01-28T02:42:25.479Z,2.90
2018-01-28T02:52:45.179Z,2.90
2018-01-28T02:57:57.405Z,2.90
2018-01-28T03:03:05.143Z,2.90
2018-01-28T03:08:16.846Z,2.90
2018-01-28T03:13:29.385Z,2.90
2018-01-28T03:18:35.855Z,2.90
2018-01-28T03:23:43.710Z,2.90
2018-01-28T03:28:49.213Z,2.90
2018-01-28T03:33:56.449Z,2.90
2018-01-28T03:39:09.181Z,2.80
2018-01-28T03:44:21.401Z,2.90
2018-01-28T03:49:27.446Z,2.90
2018-01-28T03:54:34.472Z,2.90
2018-01-28T03:59:49.494Z,2.90
2018-01-28T04:04:54.227Z,2.90
2018-01-28T04:10:07.828Z,2.90
2018-01-28T04:15:16.134Z,2.90
2018-01-28T04:20:26.686Z,2.90
2018-01-28T04:25:34.934Z,2.90
2018-01-28T04:30:45.083Z,2.80
2018-01-28T04:35:54.169Z,2.90
2018-01-28T04:41:06.540Z,2.90
2018-01-28T04:46:15.190Z,2.80
2018-01-28T04:51:32.526Z,2.80
2018-01-28T04:56:43.311Z,2.80
2018-01-28T05:02:01.108Z,2.90
2018-01-28T05:07:07.327Z,2.90
2018-01-28T05:12:13.939Z,2.90
2018-01-28T05:17:23.571Z,2.80
2018-01-28T05:22:39.421Z,2.80
2018-01-28T05:27:51.380Z,2.80
2018-01-28T05:32:58.172Z,2.80
2018-01-28T05:38:03.689Z,2.80
2018-01-28T05:43:10.109Z,2.80
2018-01-28T05:48:20.616Z,2.80
2018-01-28T05:53:30.912Z,2.70
2018-01-28T05:58:38.922Z,2.70
2018-01-28T06:03:54.120Z,2.70
2018-01-28T06:09:01.244Z,2.70
2018-01-28T06:14:18.294Z,2.70
2018-01-28T06:19:31.924Z,2.70
2018-01-28T06:29:47.307Z,2.70
2018-01-28T06:34:56.326Z,2.60
2018-01-28T06:40:01.023Z,2.60
2018-01-28T06:45:12.393Z,2.60
2018-01-28T06:50:19.637Z,2.60
2018-01-28T06:55:29.112Z,2.60
2018-01-28T07:00:36.237Z,2.60
2018-01-28T07:05:47.572Z,2.60
2018-01-28T07:10:54.911Z,2.60
2018-01-28T07:15:59.822Z,2.60
2018-01-28T07:21:03.500Z,2.60
2018-01-28T07:26:08.436Z,2.70
2018-01-28T07:31:11.597Z,2.70
2018-01-28T07:36:15.291Z,2.70
2018-01-28T07:41:18.269Z,2.70
2018-01-28T07:46:22.733Z,2.80
2018-01-28T07:51:29.883Z,2.80
2018-01-28T07:56:34.738Z,2.80
2018-01-28T08:01:48.198Z,2.80
2018-01-28T08:06:56.661Z,3.00
2018-01-28T08:12:23.207Z,3.00
2018-01-28T08:17:27.487Z,3.10
2018-01-28T08:22:39.991Z,3.20
2018-01-28T08:28:02.821Z,3.40
2018-01-28T08:33:09.612Z,3.50
2018-01-28T08:38:33.834Z,3.70
2018-01-28T08:48:51.089Z,3.90
2018-01-28T08:53:55.408Z,4.10
2018-01-28T08:59:00.616Z,4.20
2018-01-28T09:04:13.822Z,4.30
2018-01-28T09:09:21.326Z,4.40
2018-01-28T09:14:24.724Z,4.60
2018-01-28T09:19:27.967Z,4.70
2018-01-28T09:24:30.929Z,4.80
2018-01-28T09:29:34.175Z,4.90
2018-01-28T09:34:37.078Z,5.00
2018-01-28T09:39:41.111Z,5.10
2018-01-28T09:44:44.068Z,5.20
2018-01-28T09:49:46.976Z,5.30
2018-01-28T09:54:52.254Z,5.50
2018-01-28T09:59:55.376Z,5.60
2018-01-28T10:04:59.016Z,5.70
2018-01-28T10:10:03.159Z,6.00
2018-01-28T10:15:08.885Z,6.10
2018-01-28T10:20:12.649Z,6.10
2018-01-28T10:25:15.532Z,6.20
2018-01-28T10:30:20.717Z,6.30
2018-01-28T10:35:25.409Z,6.60
2018-01-28T10:40:31.481Z,6.50
2018-01-28T10:45:35.276Z,6.70
2018-01-28T10:50:45.357Z,6.90
2018-01-28T10:55:49.182Z,7.00
2018-01-28T11:00:54.243Z,7.10
2018-01-28T11:05:58.692Z,7.30
2018-01-28T11:11:03.553Z,7.30
2018-01-28T11:16:06.332Z,7.40
2018-01-28T11:21:10.403Z,7.50
2018-01-28T11:26:13.406Z,7.60
2018-01-28T11:31:17.238Z,7.70
2018-01-28T11:36:23.724Z,7.80
2018-01-28T11:41:26.846Z,7.90
2018-01-28T11:46:31.231Z,7.90
2018-01-28T11:51:34.469Z,8.00
2018-01-28T11:56:38.696Z,8.00
2018-01-28T12:01:43.493Z,8.10
2018-01-28T12:06:46.530Z,8.10
2018-01-28T12:11:50.045Z,8.10
2018-01-28T12:16:53.899Z,8.00
2018-01-28T12:21:58.611Z,8.00
2018-01-28T12:27:02.749Z,8.00
2018-01-28T12:32:08.808Z,8.00
2018-01-28T12:37:12.718Z,8.00
2018-01-28T12:42:16.344Z,8.00
2018-01-28T12:47:19.157Z,8.00
2018-01-28T12:52:23.062Z,8.00
2018-01-28T12:57:26.424Z,8.00
2018-01-28T13:02:29.895Z,8.10
2018-01-28T13:07:35.399Z,8.10
2018-01-28T13:12:39.868Z,8.10
2018-01-28T13:17:47.950Z,8.10
2018-01-28T13:22:53.090Z,8.10
2018-01-28T13:27:57.803Z,8.10
2018-01-28T13:33:02.298Z,8.10
2018-01-28T13:38:06.743Z,8.10
2018-01-28T13:43:11.308Z,8.10
2018-01-28T13:48:15.092Z,8.10
2018-01-28T13:53:18.868Z,8.10
2018-01-28T13:58:22.858Z,8.10
2018-01-28T14:03:31.475Z,8.00
2018-01-28T14:08:54.835Z,8.00
2018-01-28T14:14:03.496Z,8.00
2018-01-28T14:19:08.209Z,8.00
2018-01-28T14:24:22.333Z,8.00
2018-01-28T14:29:34.630Z,7.90
2018-01-28T14:34:39.209Z,7.90
2018-01-28T14:39:45.990Z,7.90
2018-01-28T14:44:56.524Z,7.90
2018-01-28T14:50:06.945Z,7.90
2018-01-28T14:55:11.159Z,7.90
2018-01-28T15:00:17.268Z,7.90
2018-01-28T15:05:40.126Z,7.90
2018-01-28T15:10:48.896Z,7.90
2018-01-28T15:16:00.144Z,7.90
2018-01-28T15:21:04.989Z,7.90
2018-01-28T15:26:09.608Z,7.90
2018-01-28T15:31:16.336Z,7.90
2018-01-28T15:36:23.344Z,7.90
2018-01-28T15:41:33.462Z,7.90
2018-01-28T15:46:45.792Z,7.90
2018-01-28T15:51:54.596Z,7.90
2018-01-28T15:57:00.444Z,7.90
2018-01-28T16:02:09.489Z,7.90
2018-01-28T16:07:12.416Z,7.90
2018-01-28T16:12:17.469Z,7.90
2018-01-28T16:17:24.775Z,7.90
2018-01-28T16:22:29.031Z,7.90
2018-01-28T16:27:32.890Z,7.80
2018-01-28T16:32:39.616Z,7.80
2018-01-28T16:37:47.452Z,7.80
2018-01-28T16:42:53.852Z,7.80
2018-01-28T16:48:05.994Z,7.80
2018-01-28T16:58:21.301Z,7.80
2018-01-28T17:03:25.366Z,7.80
2018-01-28T17:08:31.252Z,7.80
2018-01-28T17:13:40.445Z,7.80
2018-01-28T17:18:43.601Z,7.80
2018-01-28T17:23:46.950Z,7.80
2018-01-28T17:34:09.682Z,7.80
2018-01-28T17:39:13.046Z,7.80
2018-01-28T17:44:16.227Z,7.70
2018-01-28T17:49:19.855Z,7.70
2018-01-28T17:54:22.957Z,7.70
2018-01-28T17:59:26.671Z,7.70
2018-01-28T18:04:29.646Z,7.70
2018-01-28T18:09:34.386Z,7.70
2018-01-28T18:14:37.537Z,7.70
2018-01-28T18:19:40.836Z,7.70
2018-01-28T18:24:44.533Z,7.70
2018-01-28T18:29:47.461Z,7.70
2018-01-28T18:34:50.323Z,7.70
2018-01-28T18:39:53.261Z,7.80
2018-01-28T18:44:56.708Z,7.80
2018-01-28T18:49:59.518Z,7.80
2018-01-28T18:55:04.240Z,7.80
2018-01-28T19:00:06.981Z,7.80
2018-01-28T19:05:10.603Z,7.80
2018-01-28T19:10:16.179Z,7.70
2018-01-28T19:15:19.035Z,7.80
2018-01-28T19:20:21.976Z,7.80
2018-01-28T19:25:24.874Z,7.80
2018-01-28T19:30:28.438Z,7.80
2018-01-28T19:35:31.380Z,7.80
2018-01-28T19:40:38.054Z,7.80
2018-01-28T19:45:44.356Z,7.80
2018-01-28T19:50:48.122Z,7.80
2018-01-28T19:55:51.886Z,7.70
2018-01-28T20:00:56.408Z,7.80
2018-01-28T20:05:59.977Z,7.70
2018-01-28T20:11:02.896Z,7.70
2018-01-28T20:16:06.035Z,7.70
2018-01-28T20:26:15.966Z,7.70
2018-01-28T20:31:18.843Z,7.70
2018-01-28T20:36:22.743Z,7.70
2018-01-28T20:41:25.537Z,7.70
2018-01-28T20:46:28.758Z,7.70
2018-01-28T20:51:39.149Z,7.70
2018-01-28T20:56:44.099Z,7.60
2018-01-28T21:01:47.013Z,7.60
2018-01-28T21:06:50.192Z,7.70
2018-01-28T21:11:53.717Z,7.70
2018-01-28T21:16:57.521Z,7.60
2018-01-28T21:22:01.891Z,7.60
2018-01-28T21:27:04.579Z,7.60
2018-01-28T21:32:07.246Z,7.60
2018-01-28T21:37:10.293Z,7.60
2018-01-28T21:42:13.359Z,7.60
2018-01-28T21:47:16.309Z,7.60
2018-01-28T21:52:20.241Z,7.60
2018-01-28T21:57:23.403Z,7.50
2018-01-28T22:02:26.211Z,7.50
2018-01-28T22:07:29.216Z,7.50
2018-01-28T22:12:33.024Z,7.50
2018-01-28T22:17:36.957Z,7.50
2018-01-28T22:22:41.300Z,7.40
2018-01-28T22:27:44.450Z,7.40
2018-01-28T22:32:47.467Z,7.40
2018-01-28T22:37:50.539Z,7.40
2018-01-28T22:42:55.292Z,7.40
2018-01-28T22:47:58.647Z,7.40
2018-01-28T22:53:02.880Z,7.40
2018-01-28T22:58:06.352Z,7.40
2018-01-28T23:03:09.445Z,7.40
2018-01-28T23:08:12.984Z,7.40
2018-01-28T23:13:16.049Z,7.30
2018-01-28T23:18:19.143Z,7.30
2018-01-28T23:23:23.731Z,7.30
2018-01-28T23:28:26.796Z,7.30
2018-01-28T23:33:30.248Z,7.30
2018-01-28T23:38:35.335Z,7.30
2018-01-28T23:43:38.452Z,7.30
2018-01-28T23:48:42.669Z,7.30
2018-01-28T23:53:46.707Z,7.30
2018-01-28T23:58:50.821Z,7.30
